createdAt,value
2023-03-12T00:02:21.288Z,1.15
2023-03-12T00:04:50.293Z,1.17
2023-03-12T00:07:16.826Z,1.11
2023-03-12T00:09:44.384Z,1.12
2023-03-12T00:12:10.727Z,1.20
2023-03-12T00:14:42.009Z,1.27
2023-03-12T00:17:08.532Z,1.30
2023-03-12T00:19:34.935Z,1.24
2023-03-12T00:22:01.356Z,1.20
2023-03-12T00:24:29.044Z,1.19
2023-03-12T00:26:56.523Z,1.24
2023-03-12T00:29:22.857Z,1.27
2023-03-12T00:31:49.315Z,1.29
2023-03-12T00:34:20.606Z,1.37
2023-03-12T00:36:51.763Z,1.32
2023-03-12T00:39:18.131Z,1.27
2023-03-12T00:41:44.499Z,1.30
2023-03-12T00:44:19.035Z,1.36
2023-03-12T00:46:48.554Z,1.27
2023-03-12T00:49:14.998Z,1.18
2023-03-12T00:51:41.389Z,1.12
2023-03-12T00:54:18.101Z,1.07
2023-03-12T00:56:44.535Z,1.07
2023-03-12T00:59:11.138Z,1.01
2023-03-12T01:01:39.793Z,0.92
2023-03-12T01:04:06.325Z,0.96
2023-03-12T01:06:32.818Z,0.87
2023-03-12T01:09:01.920Z,1.09
2023-03-12T01:11:28.731Z,1.16
2023-03-12T01:13:55.081Z,1.20
2023-03-12T01:16:21.636Z,1.37
2023-03-12T01:18:48.046Z,1.59
2023-03-12T01:21:17.152Z,1.82
2023-03-12T01:23:43.542Z,2.02
2023-03-12T01:26:10.622Z,2.08
2023-03-12T01:28:37.115Z,2.09
2023-03-12T01:31:12.294Z,2.19
2023-03-12T01:33:42.281Z,2.22
2023-03-12T01:36:24.622Z,2.31
2023-03-12T01:38:53.033Z,2.32
2023-03-12T01:41:23.693Z,2.34
2023-03-12T01:43:52.827Z,2.37
2023-03-12T01:46:31.598Z,2.37
2023-03-12T01:49:26.938Z,2.38
2023-03-12T01:52:24.492Z,2.31
2023-03-12T01:54:58.110Z,2.37
2023-03-12T01:57:46.293Z,2.35
2023-03-12T02:00:17.483Z,2.35
2023-03-12T02:02:46.029Z,2.35
2023-03-12T02:05:55.841Z,2.30
2023-03-12T02:08:23.835Z,2.34
2023-03-12T02:10:50.829Z,2.36
2023-03-12T02:13:18.563Z,2.35
2023-03-12T02:15:46.104Z,2.34
2023-03-12T02:18:17.791Z,2.37
2023-03-12T02:21:10.773Z,2.45
2023-03-12T02:23:55.577Z,2.47
2023-03-12T02:26:26.416Z,2.39
2023-03-12T02:28:53.008Z,2.40
2023-03-12T02:31:34.876Z,2.56
2023-03-12T02:34:01.494Z,2.52
2023-03-12T02:36:30.233Z,2.51
2023-03-12T02:38:56.725Z,2.53
2023-03-12T02:41:34.104Z,2.56
2023-03-12T02:44:13.009Z,2.60
2023-03-12T02:46:49.006Z,2.65
2023-03-12T02:49:17.254Z,2.70
2023-03-12T02:51:45.702Z,2.72
2023-03-12T02:54:14.029Z,2.71
2023-03-12T02:56:41.422Z,2.67
2023-03-12T02:59:16.857Z,2.75
2023-03-12T03:01:44.126Z,2.72
2023-03-12T03:04:17.201Z,2.73
2023-03-12T03:06:44.270Z,2.75
2023-03-12T03:09:13.142Z,2.74
2023-03-12T03:11:39.683Z,2.74
2023-03-12T03:14:06.170Z,2.73
2023-03-12T03:16:34.877Z,2.76
2023-03-12T03:19:01.434Z,2.77
2023-03-12T03:21:27.920Z,2.81
2023-03-12T03:23:54.480Z,2.86
2023-03-12T03:26:22.329Z,2.86
2023-03-12T03:28:50.981Z,2.89
2023-03-12T03:31:18.200Z,2.81
2023-03-12T03:33:47.779Z,2.83
2023-03-12T03:36:14.314Z,2.77
2023-03-12T03:38:41.886Z,2.82
2023-03-12T03:41:15.508Z,2.83
2023-03-12T03:43:42.117Z,2.85
2023-03-12T03:46:14.467Z,2.79
2023-03-12T03:48:41.715Z,2.81
2023-03-12T03:51:09.585Z,2.84
2023-03-12T03:53:36.083Z,2.81
2023-03-12T03:56:09.372Z,2.83
2023-03-12T03:58:38.398Z,2.83
2023-03-12T04:01:05.130Z,2.89
2023-03-12T04:03:32.047Z,2.90
2023-03-12T04:06:04.585Z,2.91
2023-03-12T04:08:33.527Z,2.85
2023-03-12T04:11:00.103Z,2.86
2023-03-12T04:13:28.674Z,2.81
2023-03-12T04:15:55.525Z,2.75
2023-03-12T04:18:26.309Z,2.78
2023-03-12T04:20:54.148Z,2.77
2023-03-12T04:23:20.514Z,2.79
2023-03-12T04:25:48.697Z,2.75
2023-03-12T04:28:15.104Z,2.72
2023-03-12T04:30:43.731Z,2.71
2023-03-12T04:33:10.357Z,2.75
2023-03-12T04:35:39.742Z,2.72
2023-03-12T04:38:06.330Z,2.77
2023-03-12T04:40:32.781Z,2.74
2023-03-12T04:43:00.362Z,2.76
2023-03-12T04:45:35.171Z,2.69
2023-03-12T04:48:03.794Z,2.69
2023-03-12T04:50:30.230Z,2.68
2023-03-12T04:52:56.757Z,2.63
2023-03-12T04:55:23.247Z,2.58
2023-03-12T04:57:52.553Z,2.56
2023-03-12T05:00:21.929Z,2.43
2023-03-12T05:02:48.418Z,2.50
2023-03-12T05:05:14.838Z,2.48
2023-03-12T05:07:47.769Z,2.44
2023-03-12T05:10:14.238Z,2.42
2023-03-12T05:12:40.782Z,2.34
2023-03-12T05:15:07.922Z,2.44
2023-03-12T05:17:36.958Z,2.53
2023-03-12T05:20:04.031Z,2.48
2023-03-12T05:22:30.494Z,2.53
2023-03-12T05:24:57.018Z,2.58
2023-03-12T05:27:23.430Z,2.59
2023-03-12T05:29:49.978Z,2.60
2023-03-12T05:32:16.465Z,2.60
2023-03-12T05:34:42.832Z,2.60
2023-03-12T05:37:09.399Z,2.62
2023-03-12T05:39:35.881Z,2.60
2023-03-12T05:42:04.016Z,2.62
2023-03-12T05:44:33.202Z,2.65
2023-03-12T05:47:02.206Z,2.74
2023-03-12T05:49:32.934Z,2.77
2023-03-12T05:54:40.851Z,2.87
2023-03-12T05:57:07.874Z,2.84
2023-03-12T05:59:35.440Z,2.84
2023-03-12T06:02:01.918Z,2.80
2023-03-12T06:04:33.508Z,2.81
2023-03-12T06:07:02.946Z,2.73
2023-03-12T06:09:29.262Z,2.67
2023-03-12T06:11:55.687Z,2.68
2023-03-12T06:14:22.162Z,2.66
2023-03-12T06:16:48.553Z,2.63
2023-03-12T06:19:21.809Z,2.62
2023-03-12T06:21:52.136Z,2.65
2023-03-12T06:24:18.898Z,2.64
2023-03-12T06:26:45.291Z,2.68
2023-03-12T06:29:12.068Z,2.62
2023-03-12T06:31:44.749Z,2.66
2023-03-12T06:34:11.224Z,2.61
2023-03-12T06:36:38.054Z,2.55
2023-03-12T06:39:04.558Z,2.53
2023-03-12T06:41:33.640Z,2.53
2023-03-12T06:44:02.311Z,2.50
2023-03-12T06:46:31.177Z,2.51
2023-03-12T06:48:57.767Z,2.49
2023-03-12T06:54:13.722Z,2.47
2023-03-12T06:56:40.195Z,2.52
2023-03-12T06:59:06.787Z,2.47
2023-03-12T07:01:38.420Z,2.49
2023-03-12T07:04:04.891Z,2.51
2023-03-12T07:06:33.891Z,2.56
2023-03-12T07:09:00.360Z,2.52
2023-03-12T07:11:29.150Z,2.49
2023-03-12T07:13:55.564Z,2.51
2023-03-12T07:16:21.964Z,2.54
2023-03-12T07:18:48.436Z,2.54
2023-03-12T07:21:15.652Z,2.56
2023-03-12T07:23:42.212Z,2.60
2023-03-12T07:26:10.556Z,2.62
2023-03-12T07:28:37.119Z,2.60
2023-03-12T07:31:04.315Z,2.63
2023-03-12T07:33:31.102Z,2.67
2023-03-12T07:35:58.226Z,2.68
2023-03-12T07:38:27.349Z,2.68
2023-03-12T07:40:55.237Z,2.73
2023-03-12T07:43:22.659Z,2.78
2023-03-12T07:45:49.680Z,2.85
2023-03-12T07:48:19.026Z,2.85
2023-03-12T07:50:48.840Z,2.88
2023-03-12T07:53:16.247Z,2.91
2023-03-12T07:55:46.178Z,2.95
2023-03-12T07:58:12.930Z,2.95
2023-03-12T08:00:44.890Z,2.96
2023-03-12T08:03:12.155Z,3.02
2023-03-12T08:05:39.386Z,3.04
2023-03-12T08:08:10.585Z,3.08
2023-03-12T08:10:37.701Z,3.20
2023-03-12T08:13:04.310Z,3.26
2023-03-12T08:15:33.292Z,3.26
2023-03-12T08:17:59.678Z,3.32
2023-03-12T08:20:26.173Z,3.33
2023-03-12T08:22:59.464Z,3.40
2023-03-12T08:25:25.965Z,3.39
2023-03-12T08:27:55.751Z,3.45
2023-03-12T08:30:22.274Z,3.51
2023-03-12T08:32:48.767Z,3.54
2023-03-12T08:35:15.347Z,3.61
2023-03-12T08:37:41.752Z,3.72
2023-03-12T08:40:12.949Z,3.72
2023-03-12T08:42:44.309Z,3.76
2023-03-12T08:45:18.024Z,3.78
2023-03-12T08:47:44.462Z,3.82
2023-03-12T08:50:13.448Z,3.95
2023-03-12T08:52:41.283Z,3.95
2023-03-12T08:55:11.651Z,4.09
2023-03-12T08:57:39.772Z,4.13
2023-03-12T09:00:08.067Z,4.19
2023-03-12T09:02:35.994Z,4.20
2023-03-12T09:05:02.398Z,4.23
2023-03-12T09:07:32.417Z,4.30
2023-03-12T09:09:58.811Z,4.37
2023-03-12T09:12:25.646Z,4.46
2023-03-12T09:15:03.442Z,4.65
2023-03-12T09:17:31.360Z,4.76
2023-03-12T09:20:03.458Z,4.93
2023-03-12T09:22:30.660Z,4.95
2023-03-12T09:24:57.586Z,5.04
2023-03-12T09:27:28.222Z,5.18
2023-03-12T09:30:00.456Z,5.26
2023-03-12T09:32:31.097Z,5.30
2023-03-12T09:35:08.649Z,5.42
2023-03-12T09:37:35.361Z,5.62
2023-03-12T09:40:05.899Z,5.80
2023-03-12T09:42:40.643Z,5.94
2023-03-12T09:45:13.498Z,6.00
2023-03-12T09:47:51.288Z,6.12
2023-03-12T09:50:33.569Z,6.06
2023-03-12T09:53:14.677Z,6.02
2023-03-12T09:55:47.480Z,6.05
2023-03-12T09:58:24.940Z,6.06
2023-03-12T10:01:00.950Z,6.07
2023-03-12T10:03:44.338Z,6.21
2023-03-12T10:06:16.942Z,6.18
2023-03-12T10:09:20.147Z,6.25
2023-03-12T10:12:05.981Z,6.36
2023-03-12T10:14:55.567Z,6.43
2023-03-12T10:18:02.948Z,6.55
2023-03-12T10:20:48.145Z,6.60
2023-03-12T10:23:32.892Z,6.53
2023-03-12T10:26:10.471Z,6.53
2023-03-12T10:28:39.607Z,6.65
2023-03-12T10:31:21.592Z,6.69
2023-03-12T10:33:55.808Z,6.82
2023-03-12T10:36:43.100Z,7.04
2023-03-12T10:39:18.662Z,7.14
2023-03-12T10:41:47.286Z,7.31
2023-03-12T10:44:21.639Z,7.34
2023-03-12T10:47:18.846Z,7.51
2023-03-12T10:49:45.304Z,7.63
2023-03-12T10:52:20.257Z,7.81
2023-03-12T10:54:57.853Z,7.85
2023-03-12T10:57:40.934Z,7.95
2023-03-12T11:00:17.707Z,7.97
2023-03-12T11:02:55.026Z,8.10
2023-03-12T11:05:38.090Z,8.10
2023-03-12T11:08:20.800Z,8.24
2023-03-12T11:10:48.211Z,8.31
2023-03-12T11:13:50.154Z,8.49
2023-03-12T11:16:16.664Z,8.58
2023-03-12T11:19:05.940Z,8.70
2023-03-12T11:21:37.671Z,8.79
2023-03-12T11:24:16.876Z,8.81
2023-03-12T11:27:12.412Z,8.79
2023-03-12T11:29:43.169Z,8.86
2023-03-12T11:32:24.019Z,8.85
2023-03-12T11:34:50.902Z,8.92
2023-03-12T11:37:50.249Z,9.05
2023-03-12T11:40:44.713Z,9.08
2023-03-12T11:43:36.017Z,9.17
2023-03-12T11:46:23.741Z,9.13
2023-03-12T11:49:36.144Z,9.15
2023-03-12T11:52:05.589Z,9.14
2023-03-12T11:54:50.525Z,9.14
2023-03-12T11:57:41.983Z,9.11
2023-03-12T12:00:14.156Z,9.11
2023-03-12T12:02:43.309Z,9.18
2023-03-12T12:05:48.200Z,9.35
2023-03-12T12:08:23.726Z,9.39
2023-03-12T12:11:11.057Z,9.42
2023-03-12T12:13:40.715Z,9.40
2023-03-12T12:16:47.695Z,9.33
2023-03-12T12:19:45.074Z,9.37
2023-03-12T12:22:44.444Z,9.49
2023-03-12T12:25:35.847Z,9.63
2023-03-12T12:28:23.620Z,9.62
2023-03-12T12:31:23.374Z,9.65
2023-03-12T12:33:55.337Z,9.62
2023-03-12T12:36:25.658Z,9.85
2023-03-12T12:39:14.678Z,9.78
2023-03-12T12:41:52.979Z,9.87
2023-03-12T12:44:33.232Z,9.84
2023-03-12T12:47:03.858Z,9.81
2023-03-12T12:49:44.090Z,9.76
2023-03-12T12:52:18.932Z,9.69
2023-03-12T12:54:58.386Z,9.67
2023-03-12T12:57:50.002Z,9.78
2023-03-12T13:00:38.214Z,9.78
2023-03-12T13:03:13.008Z,9.91
2023-03-12T13:06:01.741Z,9.97
2023-03-12T13:08:47.731Z,10.15
2023-03-12T13:11:30.545Z,10.36
2023-03-12T13:14:03.591Z,10.56
2023-03-12T13:16:44.693Z,10.60
2023-03-12T13:19:14.317Z,10.60
2023-03-12T13:22:14.954Z,10.52
2023-03-12T13:25:12.760Z,10.39
2023-03-12T13:27:45.096Z,10.45
2023-03-12T13:30:33.351Z,10.49
2023-03-12T13:32:59.833Z,10.47
2023-03-12T13:35:28.108Z,10.50
2023-03-12T13:37:54.512Z,10.56
2023-03-12T13:40:31.803Z,10.58
2023-03-12T13:43:10.045Z,10.61
2023-03-12T13:45:45.252Z,10.72
2023-03-12T13:48:16.567Z,11.10
2023-03-12T13:50:55.710Z,11.25
2023-03-12T13:53:26.399Z,11.47
2023-03-12T13:56:15.403Z,11.59
2023-03-12T13:58:54.859Z,11.84
2023-03-12T14:01:24.861Z,12.44
2023-03-12T14:03:57.127Z,12.71
2023-03-12T14:06:31.102Z,13.23
2023-03-12T14:08:57.887Z,13.41
2023-03-12T14:11:27.008Z,13.63
2023-03-12T14:13:59.365Z,13.54
2023-03-12T14:16:38.162Z,13.76
2023-03-12T14:19:05.270Z,13.09
2023-03-12T14:21:39.973Z,12.89
2023-03-12T14:24:08.420Z,13.17
2023-03-12T14:26:40.299Z,12.82
2023-03-12T14:29:29.219Z,12.87
2023-03-12T14:32:01.971Z,12.68
2023-03-12T14:34:38.493Z,12.79
2023-03-12T14:37:33.595Z,13.22
2023-03-12T14:40:21.998Z,13.70
2023-03-12T14:42:48.610Z,13.64
2023-03-12T14:45:20.144Z,13.22
2023-03-12T14:47:57.779Z,13.05
2023-03-12T14:50:26.575Z,12.53
2023-03-12T14:52:53.575Z,12.30
2023-03-12T14:55:24.454Z,12.02
2023-03-12T14:58:06.641Z,12.18
2023-03-12T15:00:36.704Z,12.49
2023-03-12T15:03:12.244Z,12.73
2023-03-12T15:05:38.759Z,12.79
2023-03-12T15:08:05.969Z,12.76
2023-03-12T15:10:32.560Z,12.32
2023-03-12T15:13:05.720Z,12.17
2023-03-12T15:15:43.958Z,11.74
2023-03-12T15:18:18.292Z,11.75
2023-03-12T15:20:49.320Z,11.56
2023-03-12T15:23:21.860Z,11.46
2023-03-12T15:26:09.430Z,11.32
2023-03-12T15:28:42.618Z,11.17
2023-03-12T15:31:15.852Z,11.20
2023-03-12T15:33:45.254Z,11.19
2023-03-12T15:36:15.038Z,11.21
2023-03-12T15:38:52.334Z,11.26
2023-03-12T15:41:26.503Z,11.30
2023-03-12T15:44:01.081Z,11.35
2023-03-12T15:46:28.675Z,11.39
2023-03-12T15:48:59.067Z,11.36
2023-03-12T15:51:33.818Z,11.37
2023-03-12T15:54:02.689Z,11.32
2023-03-12T15:56:32.360Z,11.29
2023-03-12T15:59:04.834Z,11.21
2023-03-12T16:01:44.911Z,11.14
2023-03-12T16:04:18.252Z,11.04
2023-03-12T16:06:46.582Z,11.07
2023-03-12T16:09:18.395Z,11.05
2023-03-12T16:11:45.066Z,11.03
2023-03-12T16:14:28.433Z,11.09
2023-03-12T16:16:55.018Z,11.05
2023-03-12T16:19:29.314Z,11.00
2023-03-12T16:21:55.927Z,10.90
2023-03-12T16:24:22.440Z,10.88
2023-03-12T16:26:58.721Z,10.76
2023-03-12T16:29:35.672Z,10.78
2023-03-12T16:32:10.419Z,10.76
2023-03-12T16:34:37.031Z,10.73
2023-03-12T16:37:03.507Z,10.67
2023-03-12T16:39:30.497Z,10.66
2023-03-12T16:41:56.894Z,10.55
2023-03-12T16:44:31.799Z,10.55
2023-03-12T16:46:58.253Z,10.57
2023-03-12T16:49:25.256Z,10.54
2023-03-12T16:51:57.832Z,10.56
2023-03-12T16:54:24.159Z,10.50
2023-03-12T16:56:50.510Z,10.49
2023-03-12T16:59:25.300Z,10.46
2023-03-12T17:01:51.851Z,10.50
2023-03-12T17:04:20.489Z,10.56
2023-03-12T17:06:47.004Z,10.48
2023-03-12T17:09:17.761Z,10.44
2023-03-12T17:11:44.947Z,10.39
2023-03-12T17:14:23.664Z,10.34
2023-03-12T17:16:50.680Z,10.32
2023-03-12T17:19:17.116Z,10.22
2023-03-12T17:21:44.744Z,10.23
2023-03-12T17:24:12.020Z,10.12
2023-03-12T17:26:46.046Z,10.12
2023-03-12T17:29:12.487Z,10.08
2023-03-12T17:31:38.904Z,10.04
2023-03-12T17:34:05.562Z,10.06
2023-03-12T17:36:35.925Z,10.01
2023-03-12T17:39:02.462Z,10.00
2023-03-12T17:41:32.689Z,9.97
2023-03-12T17:43:59.286Z,9.97
2023-03-12T17:46:25.765Z,10.03
2023-03-12T17:48:52.297Z,10.01
2023-03-12T17:51:18.877Z,9.98
2023-03-12T17:53:53.619Z,9.98
2023-03-12T17:56:20.129Z,9.99
2023-03-12T17:58:47.591Z,10.01
2023-03-12T18:01:15.553Z,10.03
2023-03-12T18:03:44.400Z,10.02
2023-03-12T18:06:12.980Z,9.94
2023-03-12T18:08:43.000Z,9.94
2023-03-12T18:11:10.565Z,10.03
2023-03-12T18:13:38.838Z,10.02
2023-03-12T18:16:06.532Z,10.09
2023-03-12T18:18:33.683Z,10.15
2023-03-12T18:21:00.114Z,10.13
2023-03-12T18:23:26.757Z,10.14
2023-03-12T18:25:53.479Z,10.14
2023-03-12T18:28:19.800Z,10.09
2023-03-12T18:30:50.591Z,10.09
2023-03-12T18:33:17.153Z,10.11
2023-03-12T18:35:46.602Z,10.09
2023-03-12T18:38:14.240Z,10.09
2023-03-12T18:40:41.954Z,10.08
2023-03-12T18:43:08.348Z,10.11
2023-03-12T18:45:35.015Z,10.06
2023-03-12T18:48:02.437Z,10.07
2023-03-12T18:50:30.247Z,10.12
2023-03-12T18:52:58.844Z,10.10
2023-03-12T18:55:25.256Z,10.05
2023-03-12T18:57:54.885Z,10.15
2023-03-12T19:00:28.773Z,10.13
2023-03-12T19:02:55.228Z,10.08
2023-03-12T19:05:22.354Z,10.11
2023-03-12T19:07:54.775Z,10.08
2023-03-12T19:10:24.010Z,10.15
2023-03-12T19:12:53.306Z,10.11
2023-03-12T19:15:23.587Z,10.19
2023-03-12T19:17:50.202Z,10.18
2023-03-12T19:20:24.018Z,10.13
2023-03-12T19:22:50.404Z,10.13
2023-03-12T19:25:18.025Z,10.14
2023-03-12T19:27:44.414Z,10.09
2023-03-12T19:30:11.416Z,10.15
2023-03-12T19:32:43.843Z,10.12
2023-03-12T19:35:13.139Z,10.12
2023-03-12T19:37:40.072Z,10.05
2023-03-12T19:40:07.228Z,10.04
2023-03-12T19:42:40.891Z,10.04
2023-03-12T19:45:08.063Z,10.03
2023-03-12T19:47:35.990Z,10.07
2023-03-12T19:50:02.410Z,10.02
2023-03-12T19:52:29.058Z,9.95
2023-03-12T19:55:04.833Z,9.82
2023-03-12T19:57:40.145Z,9.83
2023-03-12T20:00:08.099Z,9.73
2023-03-12T20:02:34.683Z,9.75
2023-03-12T20:05:02.317Z,9.69
2023-03-12T20:07:28.699Z,9.75
2023-03-12T20:09:55.168Z,9.75
2023-03-12T20:12:21.541Z,9.69
2023-03-12T20:14:52.135Z,9.70
2023-03-12T20:17:18.460Z,9.76
2023-03-12T20:19:45.034Z,9.70
2023-03-12T20:22:11.390Z,9.67
2023-03-12T20:24:37.826Z,9.64
2023-03-12T20:27:04.443Z,9.61
2023-03-12T20:29:30.982Z,9.61
2023-03-12T20:31:57.391Z,9.67
2023-03-12T20:34:23.900Z,9.74
2023-03-12T20:36:50.389Z,9.77
2023-03-12T20:39:16.836Z,9.72
2023-03-12T20:41:43.242Z,9.72
2023-03-12T20:44:09.594Z,9.72
2023-03-12T20:46:47.596Z,9.76
2023-03-12T20:49:16.433Z,9.68
2023-03-12T20:51:42.935Z,9.77
2023-03-12T20:54:23.918Z,9.75
2023-03-12T20:56:57.088Z,9.79
2023-03-12T20:59:23.832Z,9.75
2023-03-12T21:01:50.213Z,9.80
2023-03-12T21:04:16.603Z,9.76
2023-03-12T21:06:45.310Z,9.79
2023-03-12T21:09:13.532Z,9.73
2023-03-12T21:11:39.854Z,9.69
2023-03-12T21:14:20.895Z,9.77
2023-03-12T21:17:02.595Z,9.72
2023-03-12T21:19:30.084Z,9.70
2023-03-12T21:22:02.918Z,9.71
2023-03-12T21:24:32.592Z,9.73
2023-03-12T21:26:59.146Z,9.75
2023-03-12T21:29:28.261Z,9.68
2023-03-12T21:31:54.928Z,9.66
2023-03-12T21:34:23.960Z,9.63
2023-03-12T21:36:54.104Z,9.59
2023-03-12T21:39:21.190Z,9.60
2023-03-12T21:41:49.665Z,9.57
2023-03-12T21:44:16.817Z,9.58
2023-03-12T21:46:44.952Z,9.55
2023-03-12T21:49:13.263Z,9.50
2023-03-12T21:51:39.794Z,9.45
2023-03-12T21:54:10.986Z,9.43
2023-03-12T21:56:37.764Z,9.43
2023-03-12T21:59:08.920Z,9.44
2023-03-12T22:01:35.647Z,9.42
2023-03-12T22:04:02.207Z,9.46
2023-03-12T22:06:29.886Z,9.43
2023-03-12T22:08:56.252Z,9.39
2023-03-12T22:11:25.657Z,9.39
2023-03-12T22:13:54.625Z,9.41
2023-03-12T22:16:28.726Z,9.43
2023-03-12T22:19:02.554Z,9.41
2023-03-12T22:21:30.945Z,9.44
2023-03-12T22:23:57.529Z,9.49
2023-03-12T22:26:24.997Z,9.47
2023-03-12T22:28:53.747Z,9.42
2023-03-12T22:31:24.429Z,9.44
2023-03-12T22:33:53.776Z,9.47
2023-03-12T22:36:24.078Z,9.47
2023-03-12T22:38:53.075Z,9.45
2023-03-12T22:41:22.495Z,9.38
2023-03-12T22:43:55.712Z,9.45
2023-03-12T22:46:25.581Z,9.37
2023-03-12T22:48:54.776Z,9.38
2023-03-12T22:51:21.657Z,9.40
2023-03-12T22:53:48.032Z,9.36
2023-03-12T22:56:16.629Z,9.38
2023-03-12T22:58:43.054Z,9.38
2023-03-12T23:01:12.375Z,9.30
2023-03-12T23:03:40.883Z,9.35
2023-03-12T23:06:15.667Z,9.36
2023-03-12T23:08:47.121Z,9.29
2023-03-12T23:11:17.021Z,9.35
2023-03-12T23:13:44.884Z,9.33
2023-03-12T23:16:19.927Z,9.30
2023-03-12T23:18:47.496Z,9.23
2023-03-12T23:21:22.159Z,9.21
2023-03-12T23:23:51.537Z,9.19
2023-03-12T23:26:27.579Z,9.19
2023-03-12T23:28:59.802Z,9.20
2023-03-12T23:31:28.253Z,9.20
2023-03-12T23:33:55.593Z,9.22
2023-03-12T23:36:24.588Z,9.25
2023-03-12T23:38:51.313Z,9.18
2023-03-12T23:41:26.643Z,9.18
2023-03-12T23:43:53.327Z,9.13
2023-03-12T23:46:23.273Z,9.08
2023-03-12T23:48:50.695Z,9.05
2023-03-12T23:51:31.254Z,9.06
2023-03-12T23:54:03.000Z,9.07
2023-03-12T23:56:35.130Z,9.07
2023-03-12T23:59:02.328Z,9.09
